Time;durP1;ratioP1;P1;durP2;ratioP2;P2;SDS_P1;SDS_P2;PMS_P1;PMS_P2;Temp;Humidity;BMP_temperature;BMP_pressure;BME280_temperature;BME280_humidity;BME280_pressure;Samples;Min_cycle;Max_cycle;Signal;HPM_P1;HPM_P2
2023/03/27 00:00:31;;;;;;;2.00;0.82;;;;;;;12.76;41.91;101200.16;4934102;28;20039;-69
2023/03/27 00:02:57;;;;;;;3.85;0.90;;;;;;;12.75;42.72;101208.38;4934119;28;20127;-69
2023/03/27 00:05:23;;;;;;;8.35;1.13;;;;;;;12.72;42.63;101209.47;4934559;28;20024;-69
2023/03/27 00:07:54;;;;;;;2.25;0.77;;;;;;;12.71;42.17;101212.28;4934314;28;20449;-69
2023/03/27 00:10:21;;;;;;;4.30;0.80;;;;;;;12.69;42.76;101235.78;4950379;28;20399;-69
2023/03/27 00:12:47;;;;;;;5.50;1.02;;;;;;;12.65;41.72;101220.88;4935274;28;20126;-69
2023/03/27 00:15:16;;;;;;;2.35;0.68;;;;;;;12.62;41.77;101230.06;4934764;28;20050;-69
2023/03/27 00:17:43;;;;;;;4.18;0.70;;;;;;;12.60;41.54;101223.97;4934983;29;20111;-69
2023/03/27 00:20:09;;;;;;;3.20;1.02;;;;;;;12.58;42.71;101228.63;4933974;28;20082;-69
2023/03/27 00:22:35;;;;;;;3.83;1.00;;;;;;;12.56;41.85;101230.59;4902691;28;20028;-69
2023/03/27 00:25:01;;;;;;;3.70;1.42;;;;;;;12.55;41.82;101239.66;4933866;28;20491;-69
2023/03/27 00:27:26;;;;;;;13.23;1.50;;;;;;;12.53;41.67;101240.78;4933956;28;20036;-69
2023/03/27 00:29:52;;;;;;;5.00;0.82;;;;;;;12.50;41.57;101259.84;4934166;29;20032;-69
2023/03/27 00:32:19;;;;;;;9.20;1.10;;;;;;;12.49;42.19;101258.13;4933832;28;20048;-69
2023/03/27 00:34:45;;;;;;;3.25;1.10;;;;;;;12.46;42.78;101267.28;4917925;28;20518;-69
2023/03/27 00:37:10;;;;;;;3.70;1.23;;;;;;;12.42;42.45;101267.69;4917819;29;20070;-69
2023/03/27 00:39:36;;;;;;;3.22;0.95;;;;;;;12.42;41.84;101270.38;4933790;28;20032;-69
2023/03/27 00:42:02;;;;;;;6.00;1.10;;;;;;;12.40;42.43;101270.50;4933629;28;20040;-69
2023/03/27 00:44:33;;;;;;;6.25;0.93;;;;;;;12.39;41.68;101276.00;4934121;29;20497;-69
2023/03/27 00:47:01;;;;;;;7.50;1.13;;;;;;;12.35;42.31;101275.41;4933857;28;20116;-69
2023/03/27 00:49:30;;;;;;;7.03;0.80;;;;;;;12.35;42.21;101290.69;4917658;28;20109;-69
2023/03/27 00:51:57;;;;;;;5.88;0.82;;;;;;;12.32;42.55;101291.78;4949436;28;20497;-69
2023/03/27 00:54:28;;;;;;;9.95;1.65;;;;;;;12.32;42.51;101280.19;4917973;29;20480;-69
2023/03/27 00:56:56;;;;;;;3.67;0.73;;;;;;;12.30;41.74;101287.53;4934032;29;20036;-69
2023/03/27 00:59:26;;;;;;;3.80;0.68;;;;;;;12.26;42.08;101287.78;4934755;29;20085;-69
2023/03/27 01:01:52;;;;;;;2.42;0.80;;;;;;;12.21;41.72;101287.31;4918468;29;20161;-64
2023/03/27 01:04:21;;;;;;;7.22;0.60;;;;;;;12.22;42.75;101293.56;4933138;28;20513;-64
2023/03/27 01:06:49;;;;;;;5.07;1.20;;;;;;;12.19;42.83;101291.97;4933454;28;20036;-64
2023/03/27 01:09:14;;;;;;;4.50;1.10;;;;;;;12.19;42.82;101297.34;4917465;28;20110;-64
2023/03/27 01:11:52;;;;;;;7.45;0.68;;;;;;;12.18;41.94;101297.47;4917929;29;20115;-64
2023/03/27 01:14:36;;;;;;;1.65;0.57;;;;;;;12.15;41.88;101301.25;4933216;28;20082;-64
2023/03/27 01:17:20;;;;;;;3.55;1.00;;;;;;;12.13;42.32;101307.75;4933094;28;20028;-64
2023/03/27 01:20:02;;;;;;;13.43;1.70;;;;;;;12.10;41.96;101308.00;4933077;28;20040;-64
2023/03/27 01:22:31;;;;;;;2.03;0.90;;;;;;;12.10;42.78;101308.00;4933465;29;20032;-64
2023/03/27 01:25:11;;;;;;;7.25;0.95;;;;;;;12.10;41.96;101319.59;4934086;28;20422;-64
2023/03/27 01:27:43;;;;;;;6.07;1.05;;;;;;;12.09;42.81;101317.88;4932934;28;20511;-64
2023/03/27 01:30:14;;;;;;;7.07;1.17;;;;;;;12.07;42.02;101309.09;4934066;28;20093;-64
2023/03/27 01:33:01;;;;;;;5.88;1.00;;;;;;;12.08;42.11;101316.19;4933266;29;20046;-64
2023/03/27 01:36:13;;;;;;;6.38;1.23;;;;;;;12.04;42.04;101316.53;4932766;29;20087;-64
2023/03/27 01:39:00;;;;;;;2.83;0.73;;;;;;;12.04;42.62;101322.78;4940341;28;20071;-64
2023/03/27 01:41:29;;;;;;;2.95;1.00;;;;;;;12.01;42.21;101333.75;4932868;29;20087;-64
2023/03/27 01:43:59;;;;;;;3.28;1.10;;;;;;;11.98;42.41;101333.16;4932758;28;20525;-64
2023/03/27 01:46:30;;;;;;;7.25;1.27;;;;;;;11.97;41.96;101339.53;4932712;28;20050;-64
2023/03/27 01:49:08;;;;;;;4.32;0.55;;;;;;;11.96;42.42;101338.66;4932761;29;20035;-64
2023/03/27 01:51:36;;;;;;;3.78;1.27;;;;;;;11.95;42.15;101347.69;4933300;29;20078;-64
2023/03/27 01:54:12;;;;;;;5.88;2.45;;;;;;;11.95;42.39;101347.69;4932724;28;20032;-64
2023/03/27 01:57:15;;;;;;;4.95;0.60;;;;;;;11.95;42.03;101350.38;4933097;29;20122;-64
2023/03/27 01:59:43;;;;;;;7.45;0.70;;;;;;;11.93;41.97;101349.66;4932430;28;20050;-64
2023/03/27 02:02:13;;;;;;;1.35;0.60;;;;;;;11.94;42.08;101353.19;4931711;28;20458;-64
2023/03/27 02:04:43;;;;;;;8.93;0.82;;;;;;;11.94;42.19;101351.38;4931350;28;20044;-64
2023/03/27 02:07:12;;;;;;;6.95;1.05;;;;;;;11.94;42.24;101350.50;4932141;28;20150;-64
2023/03/27 02:09:45;;;;;;;4.78;0.75;;;;;;;11.91;41.94;101357.00;4932599;28;20411;-64
2023/03/27 02:12:18;;;;;;;2.88;0.98;;;;;;;11.91;42.30;101357.00;4932482;28;20042;-64
2023/03/27 02:14:51;;;;;;;5.95;0.90;;;;;;;11.89;42.55;101358.91;4932938;29;20059;-64
2023/03/27 02:17:19;;;;;;;4.70;0.85;;;;;;;11.87;43.00;101360.88;4932075;29;20039;-65
2023/03/27 02:20:14;;;;;;;3.05;0.80;;;;;;;11.85;43.05;101362.84;4932389;28;20073;-64
2023/03/27 02:22:41;;;;;;;6.38;0.90;;;;;;;11.84;42.63;101371.88;4932867;28;20067;-64
2023/03/27 02:25:38;;;;;;;4.10;0.70;;;;;;;11.83;42.42;101372.88;4917398;29;20127;-64
2023/03/27 02:28:33;;;;;;;6.25;1.27;;;;;;;11.81;42.29;101377.47;4933130;28;20036;-64
2023/03/27 02:30:58;;;;;;;1.35;0.57;;;;;;;11.80;42.89;101385.66;4932297;28;20089;-64
2023/03/27 02:33:45;;;;;;;7.38;0.88;;;;;;;11.78;43.02;101393.81;4933429;28;20118;-64
2023/03/27 02:36:36;;;;;;;5.25;1.55;;;;;;;11.79;42.61;101395.53;4933029;28;20048;-64
2023/03/27 02:39:12;;;;;;;11.43;0.93;;;;;;;11.80;43.09;101397.25;4947796;28;20482;-64
2023/03/27 02:41:42;;;;;;;11.82;1.15;;;;;;;11.81;43.16;101407.00;4932407;28;20079;-64
2023/03/27 02:44:30;;;;;;;3.58;0.73;;;;;;;11.85;42.90;101408.47;4931874;29;20071;-64
2023/03/27 02:47:10;;;;;;;1.65;0.50;;;;;;;11.87;42.58;101406.53;4931862;28;20036;-64
2023/03/27 02:49:48;;;;;;;2.63;0.77;;;;;;;11.87;43.20;101403.84;4931956;28;20039;-64
2023/03/27 02:52:27;;;;;;;4.47;0.70;;;;;;;11.92;42.54;101409.69;4931776;28;20036;-64
2023/03/27 02:55:03;;;;;;;7.18;0.73;;;;;;;11.95;43.06;101412.13;4931680;29;20115;-64
2023/03/27 02:57:30;;;;;;;2.03;0.70;;;;;;;11.98;43.04;101417.25;4932401;29;20032;-64
2023/03/27 02:59:59;;;;;;;8.15;1.20;;;;;;;12.01;42.91;101426.88;4915871;28;20483;-65
2023/03/27 03:02:29;;;;;;;7.32;0.88;;;;;;;12.03;43.22;101419.56;4932196;28;20492;-64
2023/03/27 03:05:00;;;;;;;3.72;0.70;;;;;;;12.06;43.26;101430.06;4931795;28;20040;-64
2023/03/27 03:07:26;;;;;;;9.52;0.63;;;;;;;12.09;43.35;101441.41;4931487;28;20127;-64
2023/03/27 03:09:52;;;;;;;7.40;0.88;;;;;;;12.12;42.31;101434.91;4915582;28;20059;-64
2023/03/27 03:12:18;;;;;;;3.67;0.82;;;;;;;12.14;43.05;101435.69;4932713;28;20035;-64
2023/03/27 03:14:44;;;;;;;6.80;0.80;;;;;;;12.15;42.81;101446.28;4934621;28;20058;-64
2023/03/27 03:17:11;;;;;;;7.22;0.90;;;;;;;12.18;42.80;101446.03;4919170;28;20062;-64
2023/03/27 03:19:36;;;;;;;7.78;1.23;;;;;;;12.17;42.61;101449.69;4935034;29;20057;-64
2023/03/27 03:22:04;;;;;;;3.50;0.80;;;;;;;12.18;42.66;101451.41;4934872;28;20499;-64
2023/03/27 03:24:30;;;;;;;4.95;1.10;;;;;;;12.17;42.87;101449.69;4934877;28;20047;-64
2023/03/27 03:26:56;;;;;;;3.35;0.75;;;;;;;12.17;42.91;101459.59;4918986;28;20553;-65
2023/03/27 03:29:21;;;;;;;4.55;0.60;;;;;;;12.15;43.63;101457.03;4951089;28;20035;-64
2023/03/27 03:31:48;;;;;;;5.38;1.10;;;;;;;12.17;43.58;101465.81;4934781;28;20047;-64
2023/03/27 03:34:17;;;;;;;5.78;0.80;;;;;;;12.20;42.70;101470.91;4934769;28;20075;-64
2023/03/27 03:36:43;;;;;;;4.00;1.02;;;;;;;12.21;43.77;101464.59;4934663;29;20040;-64
2023/03/27 03:39:11;;;;;;;2.45;0.63;;;;;;;12.24;42.91;101476.91;4918759;28;20035;-64
2023/03/27 03:41:36;;;;;;;5.70;0.80;;;;;;;12.26;43.14;101481.19;4950853;28;20032;-64
2023/03/27 03:44:02;;;;;;;4.53;0.77;;;;;;;12.28;43.80;101489.97;4934465;28;20392;-64
2023/03/27 03:46:27;;;;;;;0.98;0.80;;;;;;;12.29;43.57;101493.50;4934282;28;20444;-64
2023/03/27 03:48:53;;;;;;;1.83;0.70;;;;;;;12.27;42.94;101492.78;4934449;28;20568;-64
2023/03/27 03:51:18;;;;;;;5.90;0.77;;;;;;;12.27;42.75;101493.63;4934689;28;20032;-64
2023/03/27 03:53:44;;;;;;;8.15;1.23;;;;;;;12.25;42.87;101490.19;4918828;29;20082;-64
2023/03/27 03:56:09;;;;;;;2.92;0.50;;;;;;;12.24;42.90;101488.50;4934442;28;20031;-64
2023/03/27 03:58:35;;;;;;;4.10;0.77;;;;;;;12.25;43.57;101500.13;4934324;29;20043;-64
2023/03/27 04:01:01;;;;;;;4.10;0.88;;;;;;;12.24;43.65;101504.63;4934129;28;20457;-64
2023/03/27 04:03:31;;;;;;;2.90;0.63;;;;;;;12.23;42.69;101513.66;4918784;28;20040;-64
2023/03/27 04:05:59;;;;;;;4.68;0.60;;;;;;;12.21;43.12;101510.25;4942306;28;20043;-64
2023/03/27 04:08:28;;;;;;;6.70;0.50;;;;;;;12.23;43.22;101519.03;4919178;28;20075;-64
2023/03/27 04:10:53;;;;;;;3.63;0.63;;;;;;;12.23;43.60;101529.78;4934181;28;20044;-64
2023/03/27 04:13:18;;;;;;;5.90;0.52;;;;;;;12.22;43.85;101527.22;4934131;28;20040;-64
2023/03/27 04:15:44;;;;;;;4.43;0.55;;;;;;;12.21;43.29;101525.50;4934069;28;20036;-64
2023/03/27 04:18:09;;;;;;;4.95;0.75;;;;;;;12.22;43.87;101546.03;4918347;28;20031;-64
2023/03/27 04:20:35;;;;;;;7.25;0.85;;;;;;;12.19;43.84;101555.19;4935711;29;20070;-64
2023/03/27 04:23:01;;;;;;;6.68;0.82;;;;;;;12.19;43.38;101549.81;4949970;28;20036;-64
2023/03/27 04:25:27;;;;;;;3.38;1.05;;;;;;;12.15;43.24;101548.34;4933529;28;20514;-64
2023/03/27 04:27:53;;;;;;;6.70;0.70;;;;;;;12.19;44.18;101555.19;4918223;28;20035;-64
2023/03/27 04:30:23;;;;;;;3.08;0.47;;;;;;;12.21;43.33;101565.78;4918168;28;20031;-65
2023/03/27 04:32:50;;;;;;;10.40;0.93;;;;;;;12.20;43.58;101567.63;4950089;29;20024;-64
2023/03/27 04:35:16;;;;;;;1.35;0.75;;;;;;;12.22;43.43;101570.19;4933801;28;20052;-64
2023/03/27 04:37:42;;;;;;;6.32;1.10;;;;;;;12.18;43.73;101564.19;4902118;29;20042;-64
2023/03/27 04:40:09;;;;;;;2.45;0.55;;;;;;;12.18;43.48;101569.56;4917848;28;20027;-64
2023/03/27 04:42:41;;;;;;;3.65;1.23;;;;;;;12.17;43.70;101575.91;4918001;28;20054;-64
2023/03/27 04:45:11;;;;;;;6.13;1.17;;;;;;;12.16;43.21;101571.53;4933639;28;20403;-64
2023/03/27 04:47:37;;;;;;;4.18;1.13;;;;;;;12.15;43.85;101577.00;4935164;29;20036;-64
2023/03/27 04:50:03;;;;;;;5.30;0.70;;;;;;;12.11;43.21;101573.75;4917746;28;20066;-65
2023/03/27 04:52:29;;;;;;;2.30;0.55;;;;;;;12.09;43.79;101570.28;4917847;29;20036;-65
2023/03/27 04:54:54;;;;;;;2.70;0.63;;;;;;;12.09;43.48;101570.28;4917788;28;20435;-64
2023/03/27 04:57:21;;;;;;;8.13;0.77;;;;;;;12.07;44.05;101574.94;4934706;28;20484;-64
2023/03/27 04:59:47;;;;;;;11.32;1.20;;;;;;;12.04;43.93;101577.88;4902528;28;20459;-64
2023/03/27 05:02:13;;;;;;;8.98;1.00;;;;;;;11.99;43.63;101580.06;4917787;29;20035;-64
2023/03/27 05:04:38;;;;;;;13.13;2.20;;;;;;;11.98;43.73;101583.69;4949472;28;20039;-64
2023/03/27 05:07:04;;;;;;;1.27;0.60;;;;;;;11.98;44.35;101588.22;4902239;29;20522;-63
2023/03/27 05:09:29;;;;;;;2.88;0.77;;;;;;;11.98;43.42;101589.06;4935478;28;20035;-64
2023/03/27 05:11:54;;;;;;;9.25;0.90;;;;;;;11.97;43.26;101591.91;4917979;28;20027;-64
2023/03/27 05:14:21;;;;;;;3.92;0.80;;;;;;;11.98;43.94;101599.81;4933273;28;20122;-64
2023/03/27 05:16:49;;;;;;;9.27;0.73;;;;;;;11.98;44.03;101610.56;4933241;28;20090;-64
2023/03/27 05:19:15;;;;;;;4.05;0.90;;;;;;;11.92;43.89;101600.28;4933444;29;20027;-64
2023/03/27 05:21:42;;;;;;;2.72;0.82;;;;;;;11.99;43.80;101614.97;4917315;28;20042;-64
2023/03/27 05:24:08;;;;;;;4.57;1.00;;;;;;;12.00;44.34;101621.19;4933588;28;20063;-64
2023/03/27 05:26:34;;;;;;;4.57;1.02;;;;;;;12.00;43.91;101619.38;4934736;29;20439;-62
2023/03/27 05:29:00;;;;;;;3.53;0.90;;;;;;;11.99;44.00;101623.03;4934377;28;20044;-65
2023/03/27 05:31:27;;;;;;;4.50;0.55;;;;;;;12.00;43.96;101630.09;4937229;28;20092;-66
2023/03/27 05:33:53;;;;;;;2.38;0.90;;;;;;;12.01;43.71;101637.16;4971287;28;20046;-67
2023/03/27 05:36:19;;;;;;;4.85;0.68;;;;;;;11.99;44.42;101631.06;4970246;28;20038;-67
2023/03/27 05:38:45;;;;;;;1.75;0.75;;;;;;;11.95;43.51;101637.63;4956052;28;20402;-66
2023/03/27 05:41:10;;;;;;;5.57;0.75;;;;;;;11.95;43.57;101648.38;4988168;28;20498;-64
2023/03/27 05:43:36;;;;;;;1.13;1.00;;;;;;;11.94;44.22;101657.44;4971484;28;20035;-65
2023/03/27 05:46:02;;;;;;;12.07;1.60;;;;;;;11.93;43.64;101653.03;4971427;28;20057;-64
2023/03/27 05:48:28;;;;;;;3.67;0.85;;;;;;;11.94;44.40;101654.75;4955422;28;20075;-64
2023/03/27 05:50:53;;;;;;;2.83;1.10;;;;;;;11.96;44.31;101665.34;4971841;28;20038;-64
2023/03/27 05:53:18;;;;;;;2.65;1.10;;;;;;;11.95;44.27;101664.50;4971471;28;20039;-64
2023/03/27 05:55:44;;;;;;;1.83;0.70;;;;;;;11.98;44.06;101666.94;4955157;28;20153;-64
2023/03/27 05:58:12;;;;;;;1.15;0.82;;;;;;;12.00;44.19;101667.69;4971044;28;20034;-64
2023/03/27 06:00:40;;;;;;;0.50;0.43;;;;;;;12.02;44.43;101676.47;4972086;28;20065;-64
2023/03/27 06:03:06;;;;;;;2.40;0.98;;;;;;;12.05;43.62;101676.25;4955431;28;20436;-64
2023/03/27 06:05:31;;;;;;;7.00;0.88;;;;;;;12.04;44.53;101679.91;4954978;28;20027;-64
2023/03/27 06:07:57;;;;;;;6.00;0.98;;;;;;;12.08;43.81;101685.91;4954736;28;20399;-64
2023/03/27 06:10:25;;;;;;;4.70;1.00;;;;;;;12.10;43.86;101692.88;4972062;28;20038;-64
2023/03/27 06:13:08;;;;;;;5.68;0.88;;;;;;;12.14;43.99;101697.00;4948982;28;20045;-64
2023/03/27 06:15:36;;;;;;;6.43;0.98;;;;;;;12.18;43.82;101698.50;4970966;28;20099;-64
2023/03/27 06:18:02;;;;;;;1.58;0.77;;;;;;;12.21;43.79;101694.72;4970739;28;20081;-64
2023/03/27 06:20:28;;;;;;;6.07;1.02;;;;;;;12.23;43.99;101701.69;4971071;28;20070;-64
2023/03/27 06:22:55;;;;;;;4.70;0.80;;;;;;;12.30;43.39;101698.53;4954603;28;20027;-64
2023/03/27 06:25:22;;;;;;;5.95;1.33;;;;;;;12.34;44.70;101708.06;4970509;28;20402;-64
2023/03/27 06:27:48;;;;;;;4.30;0.50;;;;;;;12.45;43.42;101713.47;4938635;28;20104;-64
2023/03/27 06:30:16;;;;;;;5.82;0.90;;;;;;;12.59;44.13;101718.63;4954470;28;20084;-64
2023/03/27 06:32:53;;;;;;;6.05;0.70;;;;;;;12.81;44.00;101721.31;4970933;28;20104;-64
2023/03/27 06:35:20;;;;;;;4.93;0.70;;;;;;;13.01;43.66;101731.31;4970256;28;20049;-65
2023/03/27 06:37:47;;;;;;;3.67;0.93;;;;;;;13.00;43.80;101724.25;4971632;28;20034;-65
2023/03/27 06:40:23;;;;;;;6.45;0.90;;;;;;;13.04;43.62;101735.59;4972047;28;20037;-64
2023/03/27 06:42:52;;;;;;;5.28;1.27;;;;;;;13.05;43.94;101731.94;4957215;28;20038;-64
2023/03/27 06:45:18;;;;;;;2.83;0.68;;;;;;;13.12;43.75;101733.22;4971476;28;20027;-64
2023/03/27 06:48:02;;;;;;;8.55;0.90;;;;;;;13.16;42.86;101737.34;4972780;28;20026;-64
2023/03/27 06:50:29;;;;;;;5.90;1.08;;;;;;;13.34;43.89;101738.56;4986497;28;20124;-64
2023/03/27 06:52:55;;;;;;;1.92;0.70;;;;;;;13.43;44.01;101736.97;4970213;28;20073;-64
2023/03/27 06:55:24;;;;;;;1.70;0.63;;;;;;;13.48;43.72;101740.13;4938217;28;20034;-65
2023/03/27 06:57:54;;;;;;;4.57;0.80;;;;;;;13.80;43.44;101746.38;4970153;28;20034;-64
2023/03/27 07:00:24;;;;;;;1.23;0.70;;;;;;;13.92;42.63;101748.06;4970066;28;20039;-65
2023/03/27 07:02:57;;;;;;;4.63;0.90;;;;;;;13.98;42.92;101750.25;4954752;28;20027;-65
2023/03/27 07:05:25;;;;;;;4.70;0.90;;;;;;;13.93;43.78;101753.31;4970230;28;20039;-65
2023/03/27 07:07:50;;;;;;;3.38;0.60;;;;;;;13.98;42.97;101750.25;4969793;28;20058;-65
2023/03/27 07:10:16;;;;;;;5.60;0.95;;;;;;;14.32;42.14;101759.91;4953773;28;20439;-65
2023/03/27 07:12:46;;;;;;;1.52;0.85;;;;;;;14.59;42.49;101762.09;4971202;28;20406;-65
2023/03/27 07:15:11;;;;;;;9.13;0.75;;;;;;;14.76;43.02;101769.59;4970118;28;20580;-64
2023/03/27 07:17:38;;;;;;;2.13;0.80;;;;;;;15.03;41.53;101779.81;4970406;28;20114;-64
2023/03/27 07:20:05;;;;;;;5.85;1.05;;;;;;;15.24;42.06;101775.22;4970208;28;20069;-65
2023/03/27 07:22:30;;;;;;;5.68;1.00;;;;;;;15.50;41.01;101772.91;4971204;28;20042;-65
2023/03/27 07:24:56;;;;;;;5.22;1.20;;;;;;;15.73;42.04;101782.50;4969852;28;20399;-65
2023/03/27 07:27:23;;;;;;;1.67;1.33;;;;;;;15.99;41.34;101777.44;4969757;28;20084;-65
2023/03/27 07:29:48;;;;;;;5.95;0.95;;;;;;;16.24;40.69;101793.09;4971399;28;20122;-62
2023/03/27 07:32:13;;;;;;;4.72;0.70;;;;;;;16.33;41.68;101788.69;4969727;28;20197;-65
2023/03/27 07:34:39;;;;;;;3.33;0.63;;;;;;;16.27;40.92;101793.66;4937618;28;20449;-64
2023/03/27 07:37:05;;;;;;;4.80;0.65;;;;;;;16.40;40.37;101793.38;4955365;28;20065;-65
2023/03/27 07:39:30;;;;;;;8.60;0.80;;;;;;;16.70;41.74;101785.09;4969882;28;20035;-63
2023/03/27 07:41:56;;;;;;;2.00;0.90;;;;;;;16.58;40.88;101791.66;4969632;28;20485;-64
2023/03/27 07:44:22;;;;;;;3.58;1.88;;;;;;;16.39;41.78;101802.47;4970041;28;20501;-63
2023/03/27 07:46:50;;;;;;;5.45;0.85;;;;;;;16.12;40.93;101807.72;4969448;28;20035;-63
2023/03/27 07:49:16;;;;;;;5.78;1.23;;;;;;;15.85;42.33;101816.53;4954016;28;20065;-63
2023/03/27 07:51:43;;;;;;;6.10;1.27;;;;;;;15.63;42.07;101801.38;4969645;28;20073;-63
2023/03/27 07:54:12;;;;;;;0.93;0.55;;;;;;;15.54;42.19;101804.06;4953731;28;20033;-63
2023/03/27 07:56:40;;;;;;;2.13;0.90;;;;;;;15.45;42.03;101815.66;4970075;28;20027;-63
2023/03/27 07:59:06;;;;;;;4.70;1.35;;;;;;;15.55;41.57;101817.41;4985863;28;20062;-63
2023/03/27 08:01:31;;;;;;;1.70;0.70;;;;;;;16.04;40.55;101823.81;4972862;28;20494;-63
2023/03/27 08:03:58;;;;;;;2.95;0.98;;;;;;;16.18;41.36;101828.81;4974147;28;20495;-64
2023/03/27 08:06:23;;;;;;;3.97;0.50;;;;;;;16.49;39.77;101830.38;4972758;28;20067;-64
2023/03/27 08:08:49;;;;;;;2.30;0.70;;;;;;;16.80;40.29;101822.97;4956994;28;20069;-64
2023/03/27 08:11:15;;;;;;;4.40;0.70;;;;;;;17.15;39.18;101820.47;4972683;28;20050;-64
2023/03/27 08:13:41;;;;;;;3.05;0.93;;;;;;;17.41;38.83;101823.38;4973098;28;20035;-64
2023/03/27 08:16:12;;;;;;;1.98;0.60;;;;;;;17.67;39.36;101824.41;4973133;28;20033;-65
2023/03/27 08:18:38;;;;;;;1.60;0.77;;;;;;;17.89;38.63;101824.03;4974764;28;20033;-65
2023/03/27 08:21:05;;;;;;;2.90;0.80;;;;;;;18.15;38.88;101834.94;4957338;28;20126;-64
2023/03/27 08:23:32;;;;;;;4.20;0.70;;;;;;;18.43;38.83;101833.03;4957675;28;20026;-64
2023/03/27 08:25:59;;;;;;;2.42;0.93;;;;;;;18.71;37.83;101828.38;4989293;28;20093;-65
2023/03/27 08:28:29;;;;;;;1.13;0.43;;;;;;;18.93;37.66;101839.59;4974083;28;20089;-64
2023/03/27 08:30:56;;;;;;;1.92;0.60;;;;;;;19.10;37.88;101833.25;4973778;28;20058;-64
2023/03/27 08:33:22;;;;;;;2.10;0.47;;;;;;;19.33;37.96;101843.59;4972899;28;20428;-65
2023/03/27 08:35:48;;;;;;;2.42;0.55;;;;;;;19.50;37.92;101849.00;4956395;28;20055;-64
2023/03/27 08:38:14;;;;;;;2.13;0.98;;;;;;;19.70;36.81;101847.72;4973481;28;20042;-64
2023/03/27 08:40:40;;;;;;;3.88;0.50;;;;;;;19.89;36.97;101841.16;4972172;28;20047;-64
2023/03/27 08:43:08;;;;;;;0.98;0.52;;;;;;;20.07;37.03;101851.94;4972109;28;20027;-64
2023/03/27 08:45:45;;;;;;;1.35;0.45;;;;;;;20.22;36.67;101848.41;4971978;28;20060;-64
2023/03/27 08:48:16;;;;;;;1.95;0.50;;;;;;;20.44;35.82;101852.38;4955708;28;20168;-64
2023/03/27 08:50:43;;;;;;;2.97;0.50;;;;;;;20.64;36.10;101853.75;4972375;28;20022;-65
2023/03/27 08:53:49;;;;;;;1.27;0.40;;;;;;;20.84;35.38;101854.28;4971840;28;20410;-65
2023/03/27 08:56:16;;;;;;;1.02;0.45;;;;;;;21.01;35.93;101844.22;4966466;28;20031;-65
2023/03/27 08:58:43;;;;;;;0.75;0.50;;;;;;;21.12;35.46;101847.47;4971866;28;20035;-65
2023/03/27 09:01:18;;;;;;;3.47;0.50;;;;;;;21.21;34.98;101854.63;4955675;28;20113;-65
2023/03/27 09:03:43;;;;;;;2.88;1.00;;;;;;;21.43;35.40;101864.78;4971947;28;20030;-65
2023/03/27 09:06:37;;;;;;;2.85;0.60;;;;;;;21.65;34.11;101865.03;4972825;28;20028;-65
2023/03/27 09:09:11;;;;;;;2.75;0.70;;;;;;;21.21;35.08;101857.34;4971205;28;20122;-65
2023/03/27 09:11:46;;;;;;;1.52;0.60;;;;;;;21.44;34.70;101866.47;4956110;28;20035;-66
2023/03/27 09:14:25;;;;;;;4.65;0.93;;;;;;;21.47;34.91;101868.84;4971621;28;20046;-64
2023/03/27 09:16:51;;;;;;;3.15;0.85;;;;;;;21.09;35.08;101868.75;4971477;28;20114;-64
2023/03/27 09:19:32;;;;;;;5.18;1.33;;;;;;;21.02;34.87;101868.53;4939522;28;20061;-65
2023/03/27 09:22:21;;;;;;;4.95;1.05;;;;;;;20.87;34.92;101870.28;4971458;28;20117;-64
2023/03/27 09:24:50;;;;;;;5.28;0.70;;;;;;;20.63;34.61;101867.56;4972185;28;20518;-65
2023/03/27 09:27:19;;;;;;;4.40;0.73;;;;;;;20.52;34.94;101881.50;4955375;28;20030;-65
2023/03/27 09:29:55;;;;;;;9.40;0.85;;;;;;;20.51;34.92;101879.78;4971934;28;20113;-65
2023/03/27 09:32:21;;;;;;;1.00;0.70;;;;;;;21.02;34.17;101879.44;4971322;28;20038;-64
2023/03/27 09:34:46;;;;;;;4.57;0.60;;;;;;;21.49;33.25;101876.88;4972275;28;20061;-64
2023/03/27 09:37:15;;;;;;;3.50;0.98;;;;;;;21.33;33.45;101865.97;4972631;28;20062;-64
2023/03/27 09:39:45;;;;;;;3.60;0.73;;;;;;;21.78;32.77;101866.19;4971245;28;20031;-64
2023/03/27 09:42:16;;;;;;;3.35;0.63;;;;;;;22.07;33.17;101865.56;4955592;28;20039;-65
2023/03/27 09:44:43;;;;;;;4.90;0.90;;;;;;;21.53;33.47;101870.00;4971870;28;20035;-65
2023/03/27 09:47:15;;;;;;;2.08;0.63;;;;;;;21.14;34.17;101874.53;4971109;28;20114;-64
2023/03/27 09:50:10;;;;;;;4.07;1.00;;;;;;;20.61;34.27;101880.47;4971275;28;20035;-64
2023/03/27 09:52:37;;;;;;;2.83;0.75;;;;;;;20.00;35.23;101889.81;4971013;28;20039;-65
2023/03/27 09:55:22;;;;;;;3.35;0.77;;;;;;;19.49;34.92;101898.06;4972299;28;20517;-65
2023/03/27 09:57:47;;;;;;;3.03;0.50;;;;;;;19.14;34.73;101905.28;4971044;28;20035;-64
2023/03/27 10:00:29;;;;;;;4.80;0.80;;;;;;;18.78;35.45;101906.34;4971091;28;20371;-64
2023/03/27 10:03:19;;;;;;;3.28;0.60;;;;;;;18.32;35.13;101918.22;4971298;28;20037;-64
2023/03/27 10:05:45;;;;;;;3.03;0.80;;;;;;;17.96;36.10;101933.53;4970898;28;20100;-64
2023/03/27 10:08:23;;;;;;;0.95;0.38;;;;;;;17.66;35.98;101933.81;4970893;28;20045;-64
2023/03/27 10:10:55;;;;;;;1.65;0.38;;;;;;;17.54;36.62;101943.13;4970847;28;20050;-64
2023/03/27 10:13:23;;;;;;;1.35;0.20;;;;;;;17.22;36.11;101931.78;4970845;28;20110;-64
2023/03/27 10:15:48;;;;;;;0.22;0.22;;;;;;;16.85;36.33;101939.78;4970831;28;20046;-64
2023/03/27 10:18:33;;;;;;;4.03;0.43;;;;;;;16.67;37.13;101941.47;4970642;28;20039;-64
2023/03/27 10:21:01;;;;;;;2.00;0.63;;;;;;;16.56;35.99;101945.16;4970488;28;20027;-63
2023/03/27 10:23:29;;;;;;;1.45;0.35;;;;;;;16.88;36.09;101945.75;4970458;28;20034;-64
2023/03/27 10:26:00;;;;;;;0.95;0.25;;;;;;;18.78;34.46;101936.19;4970323;28;20429;-64
2023/03/27 10:28:28;;;;;;;2.13;1.05;;;;;;;20.07;33.68;101931.66;4954450;28;20165;-65
2023/03/27 10:31:07;;;;;;;0.63;0.47;;;;;;;21.19;32.88;101923.94;4970797;28;20038;-64
2023/03/27 10:33:42;;;;;;;1.35;0.60;;;;;;;22.20;32.81;101920.44;4970761;28;20035;-64
2023/03/27 10:36:09;;;;;;;1.88;0.40;;;;;;;23.07;31.85;101919.19;4954319;28;20053;-65
2023/03/27 10:38:38;;;;;;;0.57;0.50;;;;;;;23.93;31.66;101910.44;4970742;28;20042;-65
2023/03/27 10:41:13;;;;;;;1.45;0.70;;;;;;;24.85;30.60;101907.81;4970344;28;20113;-65
2023/03/27 10:43:48;;;;;;;4.28;0.93;;;;;;;25.09;30.50;101919.41;4986448;28;20035;-64
2023/03/27 10:46:16;;;;;;;2.35;0.52;;;;;;;23.81;32.13;101933.88;4954313;28;20058;-64
2023/03/27 10:49:35;;;;;;;3.30;0.50;;;;;;;22.36;33.21;101947.63;4970261;28;20031;-66
2023/03/27 10:52:15;;;;;;;0.63;0.30;;;;;;;21.00;34.20;101963.22;4969380;28;20402;-63
2023/03/27 10:54:45;;;;;;;0.63;0.38;;;;;;;20.00;35.06;101971.44;4969341;28;20031;-63
2023/03/27 10:57:34;;;;;;;1.08;0.50;;;;;;;19.00;35.03;101990.03;4970148;28;20030;-64
2023/03/27 11:00:21;;;;;;;1.27;0.50;;;;;;;18.19;36.05;101987.38;4955251;28;20038;-63
2023/03/27 11:03:10;;;;;;;2.53;0.30;;;;;;;17.61;35.34;101987.63;4970796;28;20069;-63
2023/03/27 11:05:42;;;;;;;4.22;0.52;;;;;;;17.25;35.92;101991.06;4969528;28;20544;-64
2023/03/27 11:08:14;;;;;;;2.55;0.70;;;;;;;17.16;36.08;101997.31;4953079;28;20049;-64
2023/03/27 11:10:44;;;;;;;2.28;0.50;;;;;;;18.75;34.98;101998.09;4969454;28;20434;-64
2023/03/27 11:13:26;;;;;;;2.60;0.70;;;;;;;19.97;33.50;101981.78;4953061;28;20117;-66
2023/03/27 11:15:58;;;;;;;3.58;0.90;;;;;;;20.90;33.31;101987.06;4953046;28;20031;-64
2023/03/27 11:18:27;;;;;;;1.98;0.45;;;;;;;21.75;33.23;101980.25;4969119;28;20039;-65
2023/03/27 11:20:58;;;;;;;0.40;0.17;;;;;;;22.41;32.67;101975.28;4953629;28;20031;-65
2023/03/27 11:23:27;;;;;;;2.08;0.55;;;;;;;22.97;32.31;101978.72;4969304;28;20126;-65
2023/03/27 11:25:53;;;;;;;3.50;0.50;;;;;;;23.48;32.79;101980.72;4970406;28;20091;-65
2023/03/27 11:28:42;;;;;;;0.40;0.30;;;;;;;23.97;32.01;101972.00;4971034;28;20043;-65
2023/03/27 11:31:45;;;;;;;1.05;0.30;;;;;;;24.54;31.75;101978.47;4969603;28;20039;-64
2023/03/27 11:34:27;;;;;;;3.95;0.95;;;;;;;25.04;31.41;101976.75;4970526;28;20049;-65
2023/03/27 11:37:03;;;;;;;2.50;0.47;;;;;;;25.41;31.22;101974.56;4957400;28;20061;-65
2023/03/27 11:39:58;;;;;;;1.50;0.40;;;;;;;25.90;31.07;101968.19;4974510;28;20033;-67